Time;durP1;ratioP1;P1;durP2;ratioP2;P2;SDS_P1;SDS_P2;PMS_P1;PMS_P2;Temp;Humidity;BMP_temperature;BMP_pressure;BME280_temperature;BME280_humidity;BME280_pressure;Samples;Min_cycle;Max_cycle;Signal;HPM_P1;HPM_P2
2023/05/02 00:03:54;;;;;;;;;;;18.80;63.10;;;;;;10255017;28;93955;-61
2023/05/02 00:08:56;;;;;;;;;;;18.80;63.10;;;;;;10253198;28;93506;-63
2023/05/02 00:13:57;;;;;;;;;;;18.80;63.10;;;;;;10253851;28;93290;-63
2023/05/02 00:18:59;;;;;;;;;;;18.80;63.10;;;;;;10253890;28;94397;-63
2023/05/02 00:24:01;;;;;;;;;;;18.70;63.00;;;;;;10253339;28;94858;-64
2023/05/02 00:29:04;;;;;;;;;;;18.70;63.10;;;;;;10237770;28;93812;-64
2023/05/02 00:34:05;;;;;;;;;;;18.70;63.00;;;;;;10253129;28;94453;-64
2023/05/02 00:39:07;;;;;;;;;;;18.70;62.90;;;;;;10236048;28;93951;-64
2023/05/02 00:44:09;;;;;;;;;;;18.60;62.80;;;;;;10250332;28;96058;-64
2023/05/02 00:49:11;;;;;;;;;;;18.70;62.80;;;;;;10252024;28;95136;-63
2023/05/02 00:54:13;;;;;;;;;;;18.60;62.70;;;;;;10253147;28;93854;-62
2023/05/02 00:59:15;;;;;;;;;;;18.60;62.50;;;;;;10252455;28;94477;-63
2023/05/02 01:04:43;;;;;;;;;;;18.60;62.50;;;;;;10252550;28;93591;-63
2023/05/02 01:09:44;;;;;;;;;;;18.60;62.40;;;;;;10233529;28;94308;-63
2023/05/02 01:14:49;;;;;;;;;;;18.60;62.40;;;;;;10251906;28;93207;-62
2023/05/02 01:19:56;;;;;;;;;;;18.60;62.40;;;;;;10235099;28;93522;-63
2023/05/02 01:25:17;;;;;;;;;;;18.60;62.30;;;;;;10251568;28;93683;-63
2023/05/02 01:30:20;;;;;;;;;;;18.60;62.30;;;;;;10252318;28;93465;-63
2023/05/02 01:35:21;;;;;;;;;;;18.60;62.20;;;;;;10231073;28;96938;-63
2023/05/02 01:40:25;;;;;;;;;;;18.60;62.20;;;;;;10250876;28;93269;-63
2023/05/02 01:45:27;;;;;;;;;;;18.60;62.00;;;;;;10234135;28;93935;-62
2023/05/02 01:50:29;;;;;;;;;;;18.60;62.00;;;;;;10249016;28;94220;-62
2023/05/02 01:55:33;;;;;;;;;;;18.60;62.10;;;;;;10248343;28;93506;-63
2023/05/02 02:00:35;;;;;;;;;;;18.60;62.00;;;;;;10248203;28;93368;-63
2023/05/02 02:05:40;;;;;;;;;;;18.60;61.90;;;;;;10247939;28;94580;-63
2023/05/02 02:10:45;;;;;;;;;;;18.60;61.90;;;;;;10248666;28;92918;-63
2023/05/02 02:15:49;;;;;;;;;;;18.60;61.90;;;;;;10247091;28;93551;-63
2023/05/02 02:20:52;;;;;;;;;;;18.60;61.60;;;;;;10230620;28;93498;-63
2023/05/02 02:25:55;;;;;;;;;;;18.60;61.50;;;;;;10226927;28;97019;-62
2023/05/02 02:30:57;;;;;;;;;;;18.60;61.50;;;;;;10229192;28;93635;-63
2023/05/02 02:36:22;;;;;;;;;;;18.60;61.40;;;;;;10247248;28;94453;-64
2023/05/02 02:41:26;;;;;;;;;;;18.50;61.30;;;;;;10233740;28;94582;-63
2023/05/02 02:46:45;;;;;;;;;;;18.50;61.20;;;;;;10247000;28;93292;-63
2023/05/02 02:51:59;;;;;;;;;;;18.50;61.40;;;;;;10181488;28;1912074;-64
2023/05/02 02:57:05;;;;;;;;;;;18.50;61.30;;;;;;10248943;28;93486;-64
2023/05/02 03:02:07;;;;;;;;;;;18.50;61.20;;;;;;10249601;28;93933;-63
2023/05/02 03:07:09;;;;;;;;;;;18.50;61.20;;;;;;10248615;28;93401;-62
2023/05/02 03:12:11;;;;;;;;;;;18.50;61.10;;;;;;10229351;28;94052;-64
2023/05/02 03:17:13;;;;;;;;;;;18.50;61.10;;;;;;10245720;28;95645;-64
2023/05/02 03:22:15;;;;;;;;;;;18.50;61.00;;;;;;10231139;28;94450;-64
2023/05/02 03:27:16;;;;;;;;;;;18.40;61.00;;;;;;10247654;28;93292;-63
2023/05/02 03:32:18;;;;;;;;;;;18.40;60.80;;;;;;10247952;28;94119;-64
2023/05/02 03:37:20;;;;;;;;;;;18.40;60.90;;;;;;10248114;28;94321;-63
2023/05/02 03:42:21;;;;;;;;;;;18.40;60.80;;;;;;10247746;28;93460;-64
2023/05/02 05:04:54;;;;;;;;;;;18.20;60.00;;;;;;10153082;28;93281;-63
2023/05/02 05:09:55;;;;;;;;;;;18.30;60.10;;;;;;10177660;28;93819;-64
2023/05/02 05:14:57;;;;;;;;;;;18.30;60.10;;;;;;10168924;28;96957;-63
2023/05/02 05:19:59;;;;;;;;;;;18.20;60.20;;;;;;10170677;28;92546;-63
2023/05/02 05:25:01;;;;;;;;;;;18.30;60.70;;;;;;10171340;28;94799;-63
2023/05/02 05:30:05;;;;;;;;;;;18.30;60.70;;;;;;10171285;28;93337;-64
2023/05/02 05:35:07;;;;;;;;;;;18.30;60.70;;;;;;10170894;28;93494;-64
2023/05/02 05:40:08;;;;;;;;;;;18.30;60.50;;;;;;10171499;28;93382;-64
2023/05/02 05:45:11;;;;;;;;;;;18.30;60.50;;;;;;10170865;28;95885;-63
2023/05/02 05:50:12;;;;;;;;;;;18.30;60.40;;;;;;10167005;28;93346;-64
2023/05/02 05:55:15;;;;;;;;;;;18.40;60.40;;;;;;10184226;28;93617;-63
2023/05/02 06:00:16;;;;;;;;;;;18.40;60.50;;;;;;10169086;28;93373;-63
2023/05/02 06:05:18;;;;;;;;;;;18.40;60.60;;;;;;10166721;28;97033;-64
2023/05/02 06:10:20;;;;;;;;;;;18.40;60.70;;;;;;10169411;28;94149;-63
2023/05/02 06:15:21;;;;;;;;;;;18.40;60.60;;;;;;10169107;28;94328;-64
2023/05/02 06:20:23;;;;;;;;;;;18.40;60.70;;;;;;10151876;28;92717;-63
2023/05/02 06:25:25;;;;;;;;;;;18.40;60.60;;;;;;10168801;28;93272;-61
2023/05/02 06:30:27;;;;;;;;;;;18.40;60.60;;;;;;10168120;28;93473;-64
2023/05/02 06:35:29;;;;;;;;;;;18.50;60.60;;;;;;10151967;28;93255;-64
2023/05/02 06:40:34;;;;;;;;;;;18.50;60.50;;;;;;10168250;28;93737;-64
2023/05/02 06:45:36;;;;;;;;;;;18.50;60.50;;;;;;10166700;28;93491;-64
2023/05/02 06:50:38;;;;;;;;;;;18.50;60.60;;;;;;10167301;28;94435;-64
2023/05/02 06:55:39;;;;;;;;;;;18.50;60.50;;;;;;10163327;28;95860;-64
2023/05/02 07:00:41;;;;;;;;;;;18.50;60.50;;;;;;10166766;28;93509;-64
2023/05/02 07:05:43;;;;;;;;;;;18.50;60.40;;;;;;10167284;28;93952;-64
2023/05/02 07:10:45;;;;;;;;;;;18.50;60.40;;;;;;10165681;28;94461;-63
2023/05/02 07:15:47;;;;;;;;;;;18.50;60.50;;;;;;10166769;28;93313;-64
2023/05/02 07:20:48;;;;;;;;;;;18.50;60.40;;;;;;10167606;28;93397;-63
2023/05/02 07:25:50;;;;;;;;;;;18.50;60.40;;;;;;10166303;28;93742;-64
2023/05/02 07:30:52;;;;;;;;;;;18.50;60.40;;;;;;10167364;28;92731;-64
2023/05/02 07:35:54;;;;;;;;;;;18.50;60.50;;;;;;10166470;28;93308;-64
2023/05/02 07:40:59;;;;;;;;;;;18.40;60.30;;;;;;10164926;28;93476;-64
2023/05/02 07:46:05;;;;;;;;;;;18.40;60.40;;;;;;10162745;28;96673;-64
2023/05/02 07:51:08;;;;;;;;;;;18.40;60.30;;;;;;10166727;28;94641;-64
2023/05/02 07:56:09;;;;;;;;;;;18.50;60.30;;;;;;10168449;28;94300;-64
2023/05/02 08:01:11;;;;;;;;;;;18.40;60.20;;;;;;10164977;28;93879;-65
2023/05/02 08:06:13;;;;;;;;;;;18.40;59.20;;;;;;10173416;28;92491;-65
2023/05/02 08:11:15;;;;;;;;;;;18.50;61.50;;;;;;10155729;28;93433;-63
2023/05/02 08:16:17;;;;;;;;;;;18.50;60.50;;;;;;10172410;28;93789;-63
2023/05/02 08:21:19;;;;;;;;;;;18.50;60.90;;;;;;10155838;28;92970;-64
2023/05/02 08:26:21;;;;;;;;;;;18.50;60.00;;;;;;10173258;28;94847;-63
2023/05/02 08:31:22;;;;;;;;;;;18.60;60.10;;;;;;10172411;28;93230;-63
2023/05/02 08:36:27;;;;;;;;;;;18.60;60.40;;;;;;10169312;28;95922;-65
2023/05/02 08:41:30;;;;;;;;;;;18.60;60.40;;;;;;10172000;28;93893;-64
2023/05/02 08:46:34;;;;;;;;;;;18.60;59.90;;;;;;10172489;28;93516;-64
2023/05/02 08:51:36;;;;;;;;;;;18.60;60.00;;;;;;10172080;28;93537;-64
2023/05/02 08:56:41;;;;;;;;;;;18.60;60.10;;;;;;10172285;28;94692;-64
2023/05/02 09:01:44;;;;;;;;;;;18.60;60.10;;;;;;10172778;28;94677;-64
2023/05/02 09:06:45;;;;;;;;;;;18.60;60.10;;;;;;10154333;28;93460;-64
2023/05/02 09:11:48;;;;;;;;;;;18.60;60.00;;;;;;10172144;28;91873;-64
2023/05/02 09:16:49;;;;;;;;;;;18.60;60.00;;;;;;10170935;28;93146;-64
2023/05/02 09:21:51;;;;;;;;;;;18.60;59.90;;;;;;10171106;28;94326;-64
2023/05/02 09:27:02;;;;;;;;;;;18.60;59.90;;;;;;10167954;28;97348;-64
2023/05/02 09:32:05;;;;;;;;;;;18.60;59.70;;;;;;10171466;28;94417;-64
2023/05/02 09:37:07;;;;;;;;;;;18.70;59.60;;;;;;10170028;28;93536;-64
2023/05/02 09:42:08;;;;;;;;;;;18.70;59.50;;;;;;10169762;28;94878;-63
2023/05/02 09:47:23;;;;;;;;;;;18.70;59.30;;;;;;10152922;28;94455;-64
2023/05/02 09:52:24;;;;;;;;;;;18.70;59.40;;;;;;10153589;28;95055;-63
2023/05/02 09:57:40;;;;;;;;;;;18.70;59.40;;;;;;10169543;28;92571;-63
2023/05/02 10:02:41;;;;;;;;;;;18.70;59.30;;;;;;10170246;28;92982;-63
2023/05/02 10:07:44;;;;;;;;;;;18.70;59.30;;;;;;10169278;28;94140;-64
2023/05/02 10:12:46;;;;;;;;;;;18.60;59.20;;;;;;10169685;28;93564;-63
2023/05/02 10:17:49;;;;;;;;;;;18.60;59.10;;;;;;10166361;28;97211;-63
2023/05/02 10:22:51;;;;;;;;;;;18.60;59.10;;;;;;10168670;28;92469;-63
2023/05/02 10:27:55;;;;;;;;;;;18.60;59.10;;;;;;10168361;28;93412;-63
2023/05/02 10:32:58;;;;;;;;;;;18.60;59.10;;;;;;10169055;28;92790;-64
2023/05/02 10:38:04;;;;;;;;;;;18.60;59.10;;;;;;10168914;28;93272;-65
2023/05/02 10:43:06;;;;;;;;;;;18.60;59.10;;;;;;10167670;28;93503;-61
2023/05/02 10:48:15;;;;;;;;;;;18.70;59.40;;;;;;10150234;28;93281;-62
2023/05/02 10:53:21;;;;;;;;;;;18.70;59.00;;;;;;10151137;28;92505;-64
2023/05/02 10:58:23;;;;;;;;;;;18.70;59.80;;;;;;10166007;28;92939;-62
2023/05/02 11:03:43;;;;;;;;;;;18.70;59.70;;;;;;10167207;28;94084;-63
2023/05/02 11:08:45;;;;;;;;;;;18.70;59.90;;;;;;10146983;28;95878;-63
2023/05/02 11:13:50;;;;;;;;;;;18.80;59.50;;;;;;10167006;28;94822;-63
2023/05/02 11:18:58;;;;;;;;;;;18.80;59.60;;;;;;10167087;28;93660;-63
2023/05/02 11:24:18;;;;;;;;;;;18.70;59.50;;;;;;10167107;28;93533;-63
2023/05/02 11:29:52;;;;;;;;;;;18.70;59.60;;;;;;10166136;28;93343;-63
2023/05/02 11:34:54;;;;;;;;;;;18.70;59.50;;;;;;10136436;28;93471;-63
2023/05/02 11:40:09;;;;;;;;;;;18.70;59.50;;;;;;10170692;28;94549;-64
2023/05/02 11:45:11;;;;;;;;;;;18.80;59.60;;;;;;10169717;28;93509;-63
2023/05/02 11:50:13;;;;;;;;;;;18.70;59.70;;;;;;10172835;28;93754;-63
2023/05/02 11:55:16;;;;;;;;;;;18.70;59.40;;;;;;10165492;28;93535;-63
2023/05/02 12:00:17;;;;;;;;;;;18.70;59.50;;;;;;10162360;28;96061;-63
2023/05/02 12:05:28;;;;;;;;;;;18.70;59.50;;;;;;10173474;28;93355;-63
2023/05/02 12:10:36;;;;;;;;;;;18.70;59.60;;;;;;10155163;28;94592;-63
2023/05/02 12:15:38;;;;;;;;;;;18.70;59.50;;;;;;10172269;28;93501;-63
2023/05/02 12:20:40;;;;;;;;;;;18.70;59.50;;;;;;10172392;28;94226;-63
2023/05/02 12:25:42;;;;;;;;;;;18.70;59.50;;;;;;10172593;28;94604;-63
2023/05/02 12:30:45;;;;;;;;;;;18.70;59.50;;;;;;10154147;28;94169;-64
2023/05/02 12:35:47;;;;;;;;;;;18.70;59.50;;;;;;10172150;28;92879;-63
2023/05/02 12:40:52;;;;;;;;;;;18.70;59.50;;;;;;10153276;28;94774;-64
2023/05/02 12:46:09;;;;;;;;;;;18.80;59.60;;;;;;10170331;28;93600;-63
2023/05/02 12:51:22;;;;;;;;;;;18.70;59.80;;;;;;10166727;28;96049;-63
2023/05/02 12:56:26;;;;;;;;;;;18.80;59.70;;;;;;10171664;28;94596;-63
2023/05/02 13:01:28;;;;;;;;;;;18.80;59.70;;;;;;10197320;28;94554;-63
2023/05/02 13:06:30;;;;;;;;;;;18.80;59.50;;;;;;10210150;28;93530;-63
2023/05/02 13:11:33;;;;;;;;;;;18.80;59.50;;;;;;10174094;28;96268;-66
2023/05/02 13:16:36;;;;;;;;;;;18.80;59.30;;;;;;10153514;28;94507;-65
2023/05/02 13:21:37;;;;;;;;;;;18.80;59.10;;;;;;10169408;28;93938;-66
2023/05/02 13:26:40;;;;;;;;;;;18.90;58.90;;;;;;10170261;28;91806;-65
2023/05/02 13:31:42;;;;;;;;;;;18.90;58.80;;;;;;10170813;28;94510;-65
2023/05/02 13:36:44;;;;;;;;;;;18.80;58.60;;;;;;10169803;28;93502;-65
2023/05/02 13:41:47;;;;;;;;;;;18.80;58.50;;;;;;10167367;28;95862;-66
2023/05/02 13:46:48;;;;;;;;;;;18.80;59.40;;;;;;10169692;28;93385;-66
2023/05/02 13:51:50;;;;;;;;;;;18.90;58.30;;;;;;10169362;28;94565;-66
2023/05/02 13:56:52;;;;;;;;;;;18.80;58.30;;;;;;10169857;28;93278;-62
2023/05/02 14:01:54;;;;;;;;;;;18.80;58.20;;;;;;10169149;28;93460;-61
2023/05/02 14:06:56;;;;;;;;;;;18.80;58.20;;;;;;10170115;28;94525;-61
2023/05/02 14:11:58;;;;;;;;;;;18.70;58.00;;;;;;10169816;28;94574;-62
2023/05/02 14:17:01;;;;;;;;;;;18.70;58.10;;;;;;10169543;28;93973;-61
2023/05/02 14:22:03;;;;;;;;;;;18.70;58.30;;;;;;10169306;28;93518;-61
2023/05/02 14:27:06;;;;;;;;;;;18.80;58.50;;;;;;10169149;28;94196;-61
2023/05/02 14:32:08;;;;;;;;;;;18.80;58.50;;;;;;10165976;28;95886;-62
2023/05/02 14:37:10;;;;;;;;;;;18.80;58.40;;;;;;10168456;28;93932;-61
2023/05/02 14:42:11;;;;;;;;;;;18.80;58.40;;;;;;10166504;28;94491;-66
2023/05/02 14:47:13;;;;;;;;;;;18.80;58.20;;;;;;10159588;28;93633;-65
2023/05/02 14:52:15;;;;;;;;;;;18.80;59.60;;;;;;10168082;28;94400;-60
2023/05/02 14:57:17;;;;;;;;;;;18.90;60.00;;;;;;10167596;28;93681;-61
2023/05/02 15:02:19;;;;;;;;;;;19.00;60.00;;;;;;10168025;28;94717;-60
2023/05/02 15:07:20;;;;;;;;;;;19.10;60.20;;;;;;10166825;28;92958;-61
2023/05/02 15:12:24;;;;;;;;;;;19.10;60.00;;;;;;10167779;28;93543;-64
2023/05/02 15:17:26;;;;;;;;;;;19.10;59.30;;;;;;10150512;28;93045;-63
2023/05/02 15:22:28;;;;;;;;;;;19.20;59.80;;;;;;10165115;28;95963;-64
2023/05/02 15:27:30;;;;;;;;;;;19.10;59.80;;;;;;10167764;28;94297;-63
2023/05/02 15:32:31;;;;;;;;;;;19.10;61.40;;;;;;10164427;28;93193;-64
2023/05/02 15:37:34;;;;;;;;;;;19.10;61.20;;;;;;10149710;28;94384;-63
2023/05/02 15:42:36;;;;;;;;;;;19.20;63.80;;;;;;10167199;28;94473;-62
2023/05/02 15:47:38;;;;;;;;;;;19.20;63.40;;;;;;10167331;28;94660;-66
2023/05/02 15:52:40;;;;;;;;;;;19.30;63.30;;;;;;10168197;28;93380;-66
2023/05/02 15:57:42;;;;;;;;;;;19.40;63.60;;;;;;10168766;28;93756;-65
2023/05/02 16:02:44;;;;;;;;;;;19.50;64.20;;;;;;10167924;28;94402;-65
2023/05/02 16:07:46;;;;;;;;;;;19.50;64.20;;;;;;10167939;28;93518;-63
2023/05/02 16:12:48;;;;;;;;;;;19.60;64.10;;;;;;10163985;28;94934;-64
2023/05/02 16:17:49;;;;;;;;;;;19.60;64.00;;;;;;10168978;28;94464;-64
2023/05/02 16:22:51;;;;;;;;;;;19.60;63.90;;;;;;10173419;28;93444;-64
2023/05/02 16:27:53;;;;;;;;;;;19.50;63.80;;;;;;10156852;28;94465;-64
2023/05/02 16:32:55;;;;;;;;;;;19.40;63.70;;;;;;10174564;28;94577;-65
2023/05/02 16:37:56;;;;;;;;;;;19.40;63.70;;;;;;10173132;28;93751;-64
2023/05/02 16:42:58;;;;;;;;;;;19.30;63.90;;;;;;10173138;28;94441;-65
2023/05/02 16:48:00;;;;;;;;;;;19.30;64.00;;;;;;10174124;28;92925;-64
2023/05/02 16:53:01;;;;;;;;;;;19.30;64.00;;;;;;10172855;28;93444;-65
2023/05/02 16:58:04;;;;;;;;;;;19.30;63.70;;;;;;10173476;28;93864;-64
2023/05/02 17:03:06;;;;;;;;;;;19.20;63.60;;;;;;10153931;28;96094;-65
2023/05/02 17:08:07;;;;;;;;;;;19.20;63.60;;;;;;10173587;28;93508;-65
2023/05/02 17:13:11;;;;;;;;;;;19.20;63.70;;;;;;10173625;28;92864;-64
2023/05/02 17:18:13;;;;;;;;;;;19.10;63.60;;;;;;10173267;28;93123;-65
2023/05/02 17:23:15;;;;;;;;;;;19.10;64.50;;;;;;10156387;28;93403;-65
2023/05/02 17:28:17;;;;;;;;;;;19.10;63.50;;;;;;10169308;28;93158;-65
2023/05/02 17:33:21;;;;;;;;;;;19.20;63.50;;;;;;10152384;28;93573;-65
2023/05/02 17:38:25;;;;;;;;;;;19.20;63.40;;;;;;10171352;28;94243;-65
2023/05/02 17:43:27;;;;;;;;;;;19.20;63.30;;;;;;10152666;28;94442;-64
2023/05/02 17:48:29;;;;;;;;;;;19.20;63.20;;;;;;10169535;28;95978;-65
2023/05/02 17:53:30;;;;;;;;;;;19.20;63.20;;;;;;10166641;28;96290;-65
2023/05/02 17:58:35;;;;;;;;;;;19.10;63.20;;;;;;10170669;28;94072;-63
2023/05/02 18:03:37;;;;;;;;;;;19.10;63.30;;;;;;10168945;28;93845;-63
2023/05/02 18:08:39;;;;;;;;;;;19.10;63.30;;;;;;10169301;28;93460;-64
2023/05/02 18:13:41;;;;;;;;;;;19.10;63.30;;;;;;10168759;28;93445;-64
2023/05/02 18:18:42;;;;;;;;;;;19.00;63.30;;;;;;10169268;28;93990;-65
2023/05/02 18:23:45;;;;;;;;;;;19.00;63.20;;;;;;10163470;28;93784;-65
2023/05/02 18:28:51;;;;;;;;;;;19.00;63.00;;;;;;10168816;28;92166;-66
2023/05/02 18:33:53;;;;;;;;;;;18.90;62.70;;;;;;10168858;28;92970;-66
2023/05/02 18:38:55;;;;;;;;;;;18.90;62.00;;;;;;10167384;28;93915;-66
2023/05/02 18:43:57;;;;;;;;;;;18.90;63.10;;;;;;10148645;28;97032;-67
2023/05/02 18:49:01;;;;;;;;;;;18.90;64.00;;;;;;10167245;28;94336;-67
2023/05/02 18:54:03;;;;;;;;;;;18.90;63.70;;;;;;10167505;28;92776;-66
2023/05/02 18:59:06;;;;;;;;;;;19.00;63.20;;;;;;10150346;28;94440;-67
2023/05/02 19:04:08;;;;;;;;;;;18.90;63.00;;;;;;10167159;28;93705;-67
2023/05/02 19:09:14;;;;;;;;;;;18.90;62.60;;;;;;10167853;28;94630;-68
2023/05/02 19:14:16;;;;;;;;;;;18.90;62.20;;;;;;10167543;28;94906;-66
2023/05/02 19:19:17;;;;;;;;;;;18.80;61.60;;;;;;10167347;28;92750;-65
2023/05/02 19:24:20;;;;;;;;;;;18.80;61.10;;;;;;10168082;28;93512;-67
2023/05/02 19:29:21;;;;;;;;;;;18.80;61.00;;;;;;10166710;28;93614;-66
2023/05/02 19:34:23;;;;;;;;;;;18.80;60.90;;;;;;10165102;28;96041;-68
2023/05/02 19:39:25;;;;;;;;;;;18.80;60.90;;;;;;10166909;28;93543;-67
2023/05/02 19:44:26;;;;;;;;;;;18.80;60.70;;;;;;10149778;28;93691;-66
2023/05/02 19:49:28;;;;;;;;;;;18.80;60.60;;;;;;10165854;28;92661;-68
2023/05/02 19:54:31;;;;;;;;;;;18.80;60.90;;;;;;10171794;28;93395;-65
2023/05/02 19:59:33;;;;;;;;;;;18.70;60.40;;;;;;10155972;28;93423;-66
2023/05/02 20:04:35;;;;;;;;;;;18.70;60.60;;;;;;10171882;28;94673;-65
2023/05/02 20:09:36;;;;;;;;;;;18.70;60.90;;;;;;10173967;28;93092;-65
2023/05/02 20:14:40;;;;;;;;;;;18.70;61.00;;;;;;10172697;28;93532;-66
2023/05/02 20:19:44;;;;;;;;;;;18.80;60.70;;;;;;10171125;28;93098;-65
2023/05/02 20:24:45;;;;;;;;;;;18.70;61.00;;;;;;10169697;28;96056;-66
2023/05/02 20:29:47;;;;;;;;;;;18.70;61.10;;;;;;10173043;28;94464;-65
2023/05/02 20:34:49;;;;;;;;;;;18.70;61.00;;;;;;10174215;28;95024;-66
2023/05/02 20:39:51;;;;;;;;;;;18.70;61.00;;;;;;10172855;28;94627;-65
2023/05/02 20:44:56;;;;;;;;;;;18.70;61.00;;;;;;10172000;28;93270;-66
2023/05/02 20:49:58;;;;;;;;;;;18.80;61.00;;;;;;10171574;28;94548;-65
2023/05/02 20:55:00;;;;;;;;;;;18.70;60.90;;;;;;10171706;28;94551;-65
2023/05/02 21:00:03;;;;;;;;;;;18.80;60.90;;;;;;10172019;28;93746;-66
2023/05/02 21:05:05;;;;;;;;;;;18.70;60.80;;;;;;10169237;28;94418;-66
2023/05/02 21:10:07;;;;;;;;;;;18.70;60.70;;;;;;10153495;28;94896;-66
2023/05/02 21:15:09;;;;;;;;;;;18.70;60.70;;;;;;10169707;28;96105;-67
2023/05/02 21:20:11;;;;;;;;;;;18.70;60.40;;;;;;10169344;28;94472;-67
2023/05/02 21:25:12;;;;;;;;;;;18.60;60.60;;;;;;10169713;28;93500;-66
2023/05/02 21:30:14;;;;;;;;;;;18.60;60.50;;;;;;10169982;28;93754;-67
2023/05/02 21:35:16;;;;;;;;;;;18.60;61.50;;;;;;10153362;28;94631;-66
2023/05/02 21:40:17;;;;;;;;;;;18.60;60.50;;;;;;10170755;28;94530;-67
2023/05/02 21:45:19;;;;;;;;;;;18.60;60.50;;;;;;10170246;28;93464;-67
2023/05/02 21:50:21;;;;;;;;;;;18.60;60.50;;;;;;10171261;28;94104;-67
2023/05/02 21:55:23;;;;;;;;;;;18.60;60.50;;;;;;10135836;28;94454;-66
2023/05/02 22:00:24;;;;;;;;;;;18.60;60.40;;;;;;10164281;28;94273;-67
2023/05/02 22:05:26;;;;;;;;;;;18.50;60.40;;;;;;10166926;28;95896;-67
2023/05/02 22:10:28;;;;;;;;;;;18.50;60.30;;;;;;10170127;28;94689;-67
2023/05/02 22:15:30;;;;;;;;;;;18.50;60.30;;;;;;10169045;28;93446;-67
2023/05/02 22:20:32;;;;;;;;;;;18.50;60.30;;;;;;10167470;28;93581;-67
2023/05/02 22:25:35;;;;;;;;;;;18.50;60.30;;;;;;10151676;28;94242;-67
2023/05/02 22:30:37;;;;;;;;;;;18.50;60.20;;;;;;10152245;28;93300;-66
2023/05/02 22:35:39;;;;;;;;;;;18.40;59.80;;;;;;10168530;28;94042;-67
2023/05/02 22:40:40;;;;;;;;;;;18.40;59.80;;;;;;10169669;28;92510;-66
2023/05/02 22:45:42;;;;;;;;;;;18.40;59.60;;;;;;10168119;28;93508;-67
2023/05/02 22:50:45;;;;;;;;;;;18.30;59.50;;;;;;10149733;28;94279;-66
2023/05/02 22:55:47;;;;;;;;;;;18.30;59.30;;;;;;10165793;28;96923;-66
2023/05/02 23:00:49;;;;;;;;;;;18.20;59.30;;;;;;10150826;28;94120;-67
2023/05/02 23:05:51;;;;;;;;;;;18.20;59.20;;;;;;10166472;28;93263;-67
2023/05/02 23:10:53;;;;;;;;;;;18.20;59.20;;;;;;10168742;28;94386;-66
2023/05/02 23:15:54;;;;;;;;;;;18.20;59.20;;;;;;10168185;28;93312;-67
2023/05/02 23:20:56;;;;;;;;;;;18.20;59.10;;;;;;10167679;28;94607;-66
2023/05/02 23:25:58;;;;;;;;;;;18.10;59.10;;;;;;10168425;28;93996;-68
2023/05/02 23:31:00;;;;;;;;;;;18.20;59.10;;;;;;10174687;28;92620;-67
2023/05/02 23:36:02;;;;;;;;;;;18.10;59.00;;;;;;10158273;28;93511;-62
2023/05/02 23:41:04;;;;;;;;;;;18.10;58.90;;;;;;10173825;28;93244;-62
2023/05/02 23:46:06;;;;;;;;;;;18.10;58.80;;;;;;10171795;28;96900;-61
2023/05/02 23:51:07;;;;;;;;;;;18.10;58.80;;;;;;10174033;28;93803;-61
2023/05/02 23:56:09;;;;;;;;;;;18.10;58.70;;;;;;10173829;28;94527;-62
